createdAt,value
2023-04-03T00:00:00.150Z,93.9
2023-04-03T00:05:00.165Z,93.4
2023-04-03T00:10:00.133Z,94.2
2023-04-03T00:15:00.134Z,94.3
2023-04-03T00:20:00.162Z,94.2
2023-04-03T00:25:00.143Z,94.2
2023-04-03T00:30:00.195Z,94.1
2023-04-03T00:35:00.125Z,93.8
2023-04-03T00:40:00.128Z,94.3
2023-04-03T00:45:00.137Z,94.5
2023-04-03T00:50:00.121Z,95
2023-04-03T00:55:00.104Z,95
2023-04-03T01:00:00.164Z,95.2
2023-04-03T01:05:00.125Z,95.4
2023-04-03T01:10:00.108Z,95.4
2023-04-03T01:15:00.115Z,95.2
2023-04-03T01:20:00.116Z,95
2023-04-03T01:25:00.115Z,95.3
2023-04-03T01:30:00.151Z,95.5
2023-04-03T01:35:00.112Z,95.4
2023-04-03T01:40:00.147Z,95.5
2023-04-03T01:45:00.144Z,95.7
2023-04-03T01:50:00.107Z,95.9
2023-04-03T01:55:00.118Z,96.3
2023-04-03T02:00:00.140Z,96.2
2023-04-03T02:05:00.160Z,96.5
2023-04-03T02:10:00.152Z,96.3
2023-04-03T02:15:00.097Z,96.4
2023-04-03T02:20:00.152Z,96.3
2023-04-03T02:25:00.162Z,96.3
2023-04-03T02:30:00.134Z,96.3
2023-04-03T02:35:00.103Z,96.5
2023-04-03T02:40:00.113Z,96.6
2023-04-03T02:45:00.657Z,96.5
2023-04-03T02:50:00.108Z,96.4
2023-04-03T02:55:00.088Z,96.3
2023-04-03T03:00:00.126Z,96.6
2023-04-03T03:05:00.149Z,96.5
2023-04-03T03:10:00.155Z,96.6
2023-04-03T03:15:00.119Z,97.2
2023-04-03T03:20:00.132Z,97.3
2023-04-03T03:25:00.133Z,97.4
2023-04-03T03:30:00.181Z,97.7
2023-04-03T03:35:00.130Z,97.9
2023-04-03T03:40:00.135Z,98.1
2023-04-03T03:45:00.121Z,98.1
2023-04-03T03:50:00.122Z,98.5
2023-04-03T03:55:00.158Z,98.9
2023-04-03T04:00:00.120Z,98.9
2023-04-03T04:05:00.258Z,99.4
2023-04-03T04:10:00.166Z,99.4
2023-04-03T04:15:00.131Z,99.3
2023-04-03T04:20:00.134Z,99.3
2023-04-03T04:25:00.121Z,99.5
2023-04-03T04:30:00.157Z,99.9
2023-04-03T04:35:00.192Z,99.9
2023-04-03T04:40:00.132Z,99.9
2023-04-03T04:45:00.143Z,99.9
2023-04-03T04:50:00.152Z,99.9
2023-04-03T04:55:00.142Z,99.9
2023-04-03T05:00:00.129Z,99.9
2023-04-03T05:05:00.395Z,97.9
2023-04-03T05:10:00.141Z,97.4
2023-04-03T05:15:00.153Z,96.3
2023-04-03T05:20:00.140Z,95.5
2023-04-03T05:25:00.140Z,93.1
2023-04-03T05:30:00.156Z,91.5
2023-04-03T05:35:01.358Z,88.8
2023-04-03T05:40:00.145Z,83.9
2023-04-03T05:45:00.117Z,80.2
2023-04-03T05:50:00.136Z,77.2
2023-04-03T05:55:00.119Z,72.2
2023-04-03T06:00:01.142Z,69.5
2023-04-03T06:05:00.211Z,68.3
2023-04-03T06:10:00.093Z,62.9
2023-04-03T06:15:00.114Z,60.4
2023-04-03T06:20:00.132Z,57.6
2023-04-03T06:25:00.490Z,55.2
2023-04-03T06:30:00.135Z,50.6
2023-04-03T06:35:00.101Z,49.7
2023-04-03T06:40:00.138Z,50.7
2023-04-03T06:45:00.107Z,47.1
2023-04-03T06:50:00.142Z,45.7
2023-04-03T06:55:00.126Z,46.2
2023-04-03T07:00:00.167Z,45.3
2023-04-03T07:05:00.295Z,42.3
2023-04-03T07:10:00.114Z,42.7
2023-04-03T07:15:00.120Z,42.8
2023-04-03T07:20:00.120Z,44.7
2023-04-03T07:25:00.156Z,40.7
2023-04-03T07:30:00.158Z,40.2
2023-04-03T07:35:01.143Z,38.7
2023-04-03T07:40:00.105Z,39.7
2023-04-03T07:45:00.141Z,37.4
2023-04-03T07:50:00.174Z,38.1
2023-04-03T07:55:00.118Z,40.5
2023-04-03T08:00:00.162Z,39.6
2023-04-03T08:05:00.355Z,38.4
2023-04-03T08:10:00.117Z,36.3
2023-04-03T08:15:00.112Z,37.3
2023-04-03T08:20:00.134Z,41.6
2023-04-03T08:25:00.232Z,41
2023-04-03T08:30:00.148Z,39.9
2023-04-03T08:35:00.450Z,39.4
2023-04-03T08:40:00.102Z,35.8
2023-04-03T08:45:00.229Z,35.5
2023-04-03T08:50:00.153Z,36.1
2023-04-03T08:55:00.144Z,38.2
2023-04-03T09:00:00.145Z,37.4
2023-04-03T09:05:00.227Z,36.3
2023-04-03T09:10:00.146Z,34.5
2023-04-03T09:15:00.127Z,34.3
2023-04-03T09:20:00.136Z,32.9
2023-04-03T09:25:00.232Z,30.4
2023-04-03T09:30:00.143Z,33
2023-04-03T09:35:03.876Z,32.8
2023-04-03T09:40:00.143Z,30
2023-04-03T09:45:00.234Z,30.6
2023-04-03T09:50:00.132Z,32.7
2023-04-03T09:55:00.113Z,31.7
2023-04-03T10:00:00.239Z,32.4
2023-04-03T10:05:09.231Z,33.3
2023-04-03T10:10:00.121Z,33.2
2023-04-03T10:15:00.161Z,31.5
2023-04-03T10:20:00.120Z,31.4
2023-04-03T10:25:00.267Z,30.5
2023-04-03T10:30:00.177Z,32.5
2023-04-03T10:35:04.863Z,31.2
2023-04-03T10:40:00.106Z,31.7
2023-04-03T10:45:00.297Z,31.7
2023-04-03T10:50:00.380Z,31.8
2023-04-03T10:55:00.126Z,31.7
2023-04-03T11:00:00.241Z,32.8
2023-04-03T11:05:00.315Z,33.5
2023-04-03T11:10:00.112Z,34.3
2023-04-03T11:15:00.138Z,35.4
2023-04-03T11:20:00.106Z,36.6
2023-04-03T11:25:00.214Z,36.4
2023-04-03T11:30:00.165Z,36.7
2023-04-03T11:35:00.154Z,36.5
2023-04-03T11:40:00.132Z,35.2
2023-04-03T11:45:00.304Z,35.6
2023-04-03T11:50:00.103Z,35.3
2023-04-03T11:55:00.128Z,34.9
2023-04-03T12:00:00.148Z,35.6
2023-04-03T12:05:00.227Z,34.1
2023-04-03T12:10:00.100Z,33.3
2023-04-03T12:15:00.143Z,35.5
2023-04-03T12:20:00.136Z,33.9
2023-04-03T12:25:00.214Z,35.2
2023-04-03T12:30:00.146Z,35.8
2023-04-03T12:35:00.113Z,35.2
2023-04-03T12:40:00.121Z,35.3
2023-04-03T12:45:00.226Z,35.9
2023-04-03T12:50:00.121Z,37.1
2023-04-03T12:55:00.118Z,36.5
2023-04-03T13:00:00.126Z,38
2023-04-03T13:05:00.121Z,37.5
2023-04-03T13:10:00.173Z,37.5
2023-04-03T13:15:00.118Z,36.8
2023-04-03T13:20:00.137Z,37.4
2023-04-03T13:25:01.458Z,38.3
2023-04-03T13:30:00.182Z,37.8
2023-04-03T13:35:05.340Z,38.1
2023-04-03T13:40:00.145Z,37.4
2023-04-03T13:45:00.175Z,37.5
2023-04-03T13:50:00.118Z,37.4
2023-04-03T13:55:00.123Z,37.6
2023-04-03T14:00:00.118Z,36.1
2023-04-03T14:05:00.120Z,38
2023-04-03T14:10:00.118Z,38.2
2023-04-03T14:15:00.137Z,39
2023-04-03T14:20:00.131Z,39.3
2023-04-03T14:25:00.271Z,39.2
2023-04-03T14:30:00.178Z,38.9
2023-04-03T14:35:00.140Z,39.4
2023-04-03T14:40:00.220Z,39.9
2023-04-03T14:45:00.226Z,39.6
2023-04-03T14:50:00.120Z,39.4
2023-04-03T14:55:00.114Z,39.5
2023-04-03T15:00:00.196Z,39.4
2023-04-03T15:05:00.135Z,39.5
2023-04-03T15:10:00.141Z,39.4
2023-04-03T15:15:02.976Z,39.4
2023-04-03T15:20:00.101Z,39.4
2023-04-03T15:25:00.141Z,39.4
2023-04-03T15:30:00.355Z,39.6
2023-04-03T15:35:00.094Z,39.9
2023-04-03T15:40:00.095Z,40.2
2023-04-03T15:45:00.148Z,38.6
2023-04-03T15:50:00.152Z,39.6
2023-04-03T15:55:00.108Z,39.8
2023-04-03T16:00:00.216Z,40.2
2023-04-03T16:05:00.124Z,39.7
2023-04-03T16:10:00.127Z,40.2
2023-04-03T16:15:00.115Z,40.4
2023-04-03T16:20:00.274Z,40.7
2023-04-03T16:25:00.125Z,41.2
2023-04-03T16:30:00.138Z,41.3
2023-04-03T16:40:00.093Z,41.3
2023-04-03T16:45:00.195Z,41.6
2023-04-03T16:50:00.812Z,42.1
2023-04-03T16:55:00.131Z,42.1
2023-04-03T17:00:00.150Z,42.8
2023-04-03T17:05:00.130Z,43.6
2023-04-03T17:10:00.090Z,44
2023-04-03T17:15:00.148Z,44.4
2023-04-03T17:20:00.155Z,44.9
2023-04-03T17:25:00.147Z,44.7
2023-04-03T17:30:00.120Z,44.9
2023-04-03T17:35:00.113Z,45.4
2023-04-03T17:40:00.128Z,45.8
2023-04-03T17:45:00.157Z,46.2
2023-04-03T17:50:00.130Z,46.7
2023-04-03T17:55:00.115Z,46.2
2023-04-03T18:00:00.132Z,45.8
2023-04-03T18:05:00.120Z,45.8
2023-04-03T18:10:00.113Z,45.6
2023-04-03T18:15:00.144Z,45.4
2023-04-03T18:20:00.118Z,45.5
2023-04-03T18:25:00.167Z,45.7
2023-04-03T18:30:00.177Z,45.3
2023-04-03T18:35:00.107Z,44.9
2023-04-03T18:40:00.149Z,44.2
2023-04-03T18:45:00.169Z,43.7
2023-04-03T18:50:00.147Z,44.7
2023-04-03T18:55:00.156Z,45.4
2023-04-03T19:00:00.189Z,45.7
2023-04-03T19:05:00.155Z,46.3
2023-04-03T19:10:00.127Z,46.5
2023-04-03T19:15:00.183Z,47.1
2023-04-03T19:20:00.135Z,47.2
2023-04-03T19:25:00.124Z,47.8
2023-04-03T19:30:00.126Z,48.3
2023-04-03T19:35:00.109Z,48.9
2023-04-03T19:40:00.137Z,49.5
2023-04-03T19:45:00.153Z,50.1
2023-04-03T19:50:00.142Z,50.7
2023-04-03T19:55:00.142Z,51.2
2023-04-03T20:00:00.213Z,51.7
2023-04-03T20:05:00.145Z,52.2
2023-04-03T20:10:00.188Z,52.7
2023-04-03T20:15:00.200Z,53
2023-04-03T20:20:00.116Z,53
2023-04-03T20:25:05.886Z,53.2
2023-04-03T20:30:01.196Z,52.9
2023-04-03T20:35:03.777Z,53.5
2023-04-03T20:40:00.120Z,53.8
2023-04-03T20:45:00.287Z,54.2
2023-04-03T20:50:00.127Z,54.7
2023-04-03T20:55:00.095Z,55
2023-04-03T21:00:00.142Z,54.1
2023-04-03T21:05:00.121Z,56.1
2023-04-03T21:10:00.109Z,56.7
2023-04-03T21:15:00.155Z,57.2
2023-04-03T21:20:00.145Z,57.5
2023-04-03T21:25:00.186Z,58
2023-04-03T21:30:00.203Z,58.4
2023-04-03T21:35:00.139Z,58.8
2023-04-03T21:40:00.150Z,59.1
2023-04-03T21:45:00.287Z,59.7
2023-04-03T21:50:00.113Z,60
2023-04-03T21:55:00.153Z,60.3
2023-04-03T22:00:00.370Z,60.5
2023-04-03T22:05:00.224Z,60.8
2023-04-03T22:10:00.137Z,61.1
2023-04-03T22:15:00.149Z,61.3
2023-04-03T22:20:00.143Z,61.5
2023-04-03T22:25:00.150Z,61.9
2023-04-03T22:30:00.146Z,62.2
2023-04-03T22:35:00.119Z,62.9
2023-04-03T22:40:00.095Z,63
2023-04-03T22:45:00.178Z,63.2
2023-04-03T22:50:00.142Z,63.6
2023-04-03T22:55:06.364Z,63.9
2023-04-03T23:00:00.165Z,64.1
2023-04-03T23:05:00.119Z,64.2
2023-04-03T23:10:00.129Z,64.7
2023-04-03T23:15:00.126Z,65.4
2023-04-03T23:20:00.120Z,66.5
2023-04-03T23:25:00.128Z,66.2
2023-04-03T23:30:00.163Z,67.5
2023-04-03T23:35:00.157Z,68.1
2023-04-03T23:40:00.126Z,68.6
2023-04-03T23:45:00.135Z,68.9
2023-04-03T23:50:00.137Z,70.2
2023-04-03T23:55:00.129Z,70.9
